createdAt,value
2023-02-03T00:01:30.052Z,101877.47
2023-02-03T00:03:56.776Z,101874.81
2023-02-03T00:06:36.377Z,101876.19
2023-02-03T00:12:08.341Z,101875.84
2023-02-03T00:14:36.027Z,101879.59
2023-02-03T00:17:14.140Z,101885.06
2023-02-03T00:19:46.736Z,101881.72
2023-02-03T00:22:13.269Z,101888.28
2023-02-03T00:24:42.141Z,101879.25
2023-02-03T00:27:17.400Z,101871.44
2023-02-03T00:29:43.940Z,101885.41
2023-02-03T00:32:18.034Z,101874.25
2023-02-03T00:34:45.484Z,101872.72
2023-02-03T00:37:15.154Z,101859.88
2023-02-03T00:39:43.771Z,101866.78
2023-02-03T00:42:20.450Z,101864.50
2023-02-03T00:44:46.983Z,101863.88
2023-02-03T00:47:20.404Z,101861.16
2023-02-03T00:49:46.912Z,101860.75
2023-02-03T00:52:13.496Z,101867.56
2023-02-03T00:54:42.517Z,101863.13
2023-02-03T00:57:10.474Z,101865.72
2023-02-03T00:59:37.363Z,101860.38
2023-02-03T01:02:13.921Z,101858.31
2023-02-03T01:04:50.426Z,101869.41
2023-02-03T01:07:17.609Z,101868.31
2023-02-03T01:09:51.843Z,101867.47
2023-02-03T01:12:37.453Z,101873.97
2023-02-03T01:15:05.075Z,101876.03
2023-02-03T01:17:36.659Z,101882.38
2023-02-03T01:20:07.492Z,101885.25
2023-02-03T01:22:37.567Z,101877.63
2023-02-03T01:25:11.873Z,101882.63
2023-02-03T01:27:38.480Z,101884.28
2023-02-03T01:30:05.559Z,101883.41
2023-02-03T01:32:35.924Z,101885.41
2023-02-03T01:35:12.935Z,101878.88
2023-02-03T01:37:42.504Z,101884.38
2023-02-03T01:40:09.730Z,101886.59
2023-02-03T01:42:36.236Z,101879.78
2023-02-03T01:45:02.718Z,101885.69
2023-02-03T01:47:32.332Z,101888.72
2023-02-03T01:50:24.206Z,101891.72
2023-02-03T01:53:03.657Z,101892.50
2023-02-03T01:55:41.090Z,101897.19
2023-02-03T01:58:19.926Z,101894.38
2023-02-03T02:00:54.176Z,101899.03
2023-02-03T02:03:45.782Z,101900.13
2023-02-03T02:06:13.877Z,101898.16
2023-02-03T02:08:43.102Z,101899.47
2023-02-03T02:11:09.629Z,101894.63
2023-02-03T02:13:36.840Z,101899.28
2023-02-03T02:16:18.309Z,101906.59
2023-02-03T02:19:00.075Z,101901.06
2023-02-03T02:21:46.325Z,101900.00
2023-02-03T02:24:34.559Z,101894.53
2023-02-03T02:27:43.597Z,101893.59
2023-02-03T02:30:37.375Z,101895.06
2023-02-03T02:33:10.373Z,101893.78
2023-02-03T02:35:46.095Z,101883.00
2023-02-03T02:38:36.825Z,101885.28
2023-02-03T02:41:25.688Z,101887.75
2023-02-03T02:44:07.031Z,101881.88
2023-02-03T02:46:46.285Z,101877.13
2023-02-03T02:49:30.629Z,101888.72
2023-02-03T02:52:00.177Z,101889.72
2023-02-03T02:54:37.632Z,101887.34
2023-02-03T02:57:17.065Z,101900.59
2023-02-03T02:59:43.654Z,101896.53
2023-02-03T03:02:11.756Z,101890.84
2023-02-03T03:04:48.791Z,101899.06
2023-02-03T03:07:24.157Z,101906.94
2023-02-03T03:10:01.319Z,101895.75
2023-02-03T03:12:44.695Z,101893.50
2023-02-03T03:15:19.093Z,101896.72
2023-02-03T03:17:54.895Z,101907.22
2023-02-03T03:20:28.408Z,101908.72
2023-02-03T03:23:19.508Z,101919.91
2023-02-03T03:25:51.974Z,101924.72
2023-02-03T03:28:28.016Z,101920.31
2023-02-03T03:30:56.914Z,101924.28
2023-02-03T03:33:23.616Z,101922.53
2023-02-03T03:36:18.633Z,101919.91
2023-02-03T03:39:08.744Z,101929.44
2023-02-03T03:41:54.916Z,101928.56
2023-02-03T03:44:26.663Z,101938.38
2023-02-03T03:47:26.486Z,101935.13
2023-02-03T03:50:00.218Z,101937.88
2023-02-03T03:52:32.171Z,101933.69
2023-02-03T03:55:00.743Z,101935.38
2023-02-03T03:57:36.558Z,101940.97
2023-02-03T04:00:05.722Z,101940.13
2023-02-03T04:02:50.763Z,101950.00
2023-02-03T04:05:17.570Z,101953.22
2023-02-03T04:07:46.204Z,101952.13
2023-02-03T04:10:30.463Z,101959.41
2023-02-03T04:13:07.874Z,101956.28
2023-02-03T04:15:34.779Z,101961.25
2023-02-03T04:18:01.668Z,101949.13
2023-02-03T04:20:29.755Z,101958.09
2023-02-03T04:22:56.709Z,101965.88
2023-02-03T04:25:23.670Z,101976.38
2023-02-03T04:27:52.771Z,101974.34
2023-02-03T04:30:19.494Z,101979.59
2023-02-03T04:32:46.964Z,101974.94
2023-02-03T04:35:13.979Z,101982.78
2023-02-03T04:37:43.429Z,101996.56
2023-02-03T04:40:14.771Z,102002.19
2023-02-03T04:42:48.727Z,102000.88
2023-02-03T04:45:15.901Z,102002.47
2023-02-03T04:47:42.589Z,101991.59
2023-02-03T04:50:10.256Z,101986.88
2023-02-03T04:52:40.784Z,101980.91
2023-02-03T04:55:15.884Z,101980.13
2023-02-03T04:57:49.572Z,101984.19
2023-02-03T05:00:19.741Z,101972.88
2023-02-03T05:02:46.348Z,101972.78
2023-02-03T05:05:18.610Z,101966.50
2023-02-03T05:07:56.035Z,101966.63
2023-02-03T05:10:31.076Z,101964.09
2023-02-03T05:13:01.095Z,101957.16
2023-02-03T05:15:27.775Z,101967.63
2023-02-03T05:18:00.330Z,101972.50
2023-02-03T05:20:27.078Z,101968.00
2023-02-03T05:23:00.045Z,101962.78
2023-02-03T05:25:41.272Z,101965.72
2023-02-03T05:28:09.120Z,101953.81
2023-02-03T05:30:44.366Z,101950.72
2023-02-03T05:33:13.947Z,101936.56
2023-02-03T05:35:45.893Z,101925.72
2023-02-03T05:38:18.966Z,101921.13
2023-02-03T05:40:54.820Z,101906.19
2023-02-03T05:43:24.887Z,101910.69
2023-02-03T05:45:51.492Z,101925.19
2023-02-03T05:48:18.035Z,101937.69
2023-02-03T05:50:51.746Z,101943.47
2023-02-03T05:53:19.019Z,101942.44
2023-02-03T05:55:50.139Z,101944.22
2023-02-03T05:58:16.659Z,101952.22
2023-02-03T06:00:43.447Z,101944.50
2023-02-03T06:03:19.032Z,101949.00
2023-02-03T06:05:45.585Z,101955.41
2023-02-03T06:08:21.710Z,101949.34
2023-02-03T06:10:48.274Z,101949.66
2023-02-03T06:13:19.006Z,101948.84
2023-02-03T06:15:56.147Z,101968.91
2023-02-03T06:18:24.516Z,101966.69
2023-02-03T06:21:00.853Z,101965.44
2023-02-03T06:23:28.297Z,101972.84
2023-02-03T06:26:01.217Z,101975.47
2023-02-03T06:28:30.363Z,101984.19
2023-02-03T06:30:57.059Z,101981.81
2023-02-03T06:33:26.631Z,101982.97
2023-02-03T06:35:54.715Z,101988.50
2023-02-03T06:38:33.432Z,101983.78
2023-02-03T06:44:10.382Z,101976.28
2023-02-03T06:49:24.036Z,101956.56
2023-02-03T06:51:55.740Z,101949.25
2023-02-03T06:54:27.536Z,101950.41
2023-02-03T06:57:03.262Z,101953.97
2023-02-03T06:59:46.994Z,101962.28
2023-02-03T07:02:20.905Z,101963.75
2023-02-03T07:05:17.138Z,101956.97
2023-02-03T07:07:46.543Z,101963.59
2023-02-03T07:10:15.587Z,101960.88
2023-02-03T07:12:42.180Z,101955.13
2023-02-03T07:15:16.415Z,101960.22
2023-02-03T07:17:47.987Z,101971.22
2023-02-03T07:20:24.933Z,101983.28
2023-02-03T07:22:56.779Z,101983.38
2023-02-03T07:25:33.497Z,101981.09
2023-02-03T07:28:05.472Z,101983.19
2023-02-03T07:30:32.127Z,101982.97
2023-02-03T07:33:06.576Z,101994.44
2023-02-03T07:38:22.024Z,102008.47
2023-02-03T07:41:06.872Z,102012.84
2023-02-03T07:43:36.305Z,102019.94
2023-02-03T07:46:03.020Z,102026.19
2023-02-03T07:48:38.469Z,102022.03
2023-02-03T07:51:06.067Z,102025.34
2023-02-03T07:53:33.318Z,102037.47
2023-02-03T07:56:03.337Z,102050.66
2023-02-03T07:58:33.152Z,102051.91
2023-02-03T08:01:00.202Z,102060.53
2023-02-03T08:03:29.746Z,102067.66
2023-02-03T08:06:08.959Z,102062.78
2023-02-03T08:08:36.181Z,102077.19
2023-02-03T08:11:02.755Z,102087.72
2023-02-03T08:13:33.180Z,102100.91
2023-02-03T08:16:04.052Z,102104.88
2023-02-03T08:18:32.638Z,102118.22
2023-02-03T08:21:03.689Z,102137.44
2023-02-03T08:23:30.916Z,102129.88
2023-02-03T08:26:03.086Z,102127.75
2023-02-03T08:28:35.498Z,102122.75
2023-02-03T08:31:04.195Z,102122.06
2023-02-03T08:33:31.444Z,102106.66
2023-02-03T08:35:58.063Z,102102.69
2023-02-03T08:38:27.602Z,102110.63
2023-02-03T08:40:54.277Z,102118.28
2023-02-03T08:43:20.911Z,102141.34
2023-02-03T08:45:50.619Z,102139.97
2023-02-03T08:48:17.297Z,102129.44
2023-02-03T08:50:44.470Z,102134.41
2023-02-03T08:53:11.421Z,102144.47
2023-02-03T08:55:41.109Z,102133.25
2023-02-03T08:58:07.688Z,102118.56
2023-02-03T09:00:36.541Z,102112.53
2023-02-03T09:03:03.169Z,102102.47
2023-02-03T09:05:32.943Z,102106.66
2023-02-03T09:07:59.752Z,102098.34
2023-02-03T09:10:29.706Z,102112.03
2023-02-03T09:12:57.183Z,102110.69
2023-02-03T09:15:23.969Z,102106.41
2023-02-03T09:17:50.569Z,102102.66
2023-02-03T09:20:23.070Z,102103.91
2023-02-03T09:22:49.788Z,102095.22
2023-02-03T09:25:16.621Z,102085.19
2023-02-03T09:27:46.573Z,102060.06
2023-02-03T09:30:19.337Z,102065.00
2023-02-03T09:32:46.009Z,102067.25
2023-02-03T09:35:12.577Z,102084.44
2023-02-03T09:37:39.181Z,102075.53
2023-02-03T09:40:06.657Z,102058.16
2023-02-03T09:43:02.255Z,102061.03
2023-02-03T09:45:30.888Z,102056.50
2023-02-03T09:48:05.019Z,102065.78
2023-02-03T09:50:35.710Z,102068.72
2023-02-03T09:53:12.615Z,102070.34
2023-02-03T09:55:42.573Z,102069.50
2023-02-03T09:58:20.722Z,102067.59
2023-02-03T10:00:59.798Z,102079.81
2023-02-03T10:03:36.828Z,102081.72
2023-02-03T10:06:28.264Z,102085.66
2023-02-03T10:09:00.755Z,102073.22
2023-02-03T10:11:41.536Z,102078.19
2023-02-03T10:14:24.205Z,102083.16
2023-02-03T10:17:40.101Z,102069.91
2023-02-03T10:20:10.094Z,102074.88
2023-02-03T10:23:18.021Z,102080.94
2023-02-03T10:25:57.339Z,102085.13
2023-02-03T10:28:41.768Z,102074.09
2023-02-03T10:31:32.658Z,102068.00
2023-02-03T10:37:14.553Z,102076.03
2023-02-03T10:39:58.640Z,102079.88
2023-02-03T10:42:38.069Z,102081.84
2023-02-03T10:45:05.429Z,102080.72
2023-02-03T10:47:41.962Z,102088.28
2023-02-03T10:50:18.834Z,102083.59
2023-02-03T10:52:45.844Z,102083.78
2023-02-03T10:55:21.556Z,102081.88
2023-02-03T10:57:48.553Z,102077.50
2023-02-03T11:00:19.579Z,102073.72
2023-02-03T11:03:03.267Z,102065.72
2023-02-03T11:05:33.390Z,102063.31
2023-02-03T11:08:29.531Z,102059.28
2023-02-03T11:11:31.039Z,102048.03
2023-02-03T11:14:07.832Z,102047.47
2023-02-03T11:16:41.696Z,102045.59
2023-02-03T11:19:28.452Z,102045.88
2023-02-03T11:22:03.284Z,102048.84
2023-02-03T11:24:46.353Z,102045.91
2023-02-03T11:27:18.558Z,102037.50
2023-02-03T11:29:54.159Z,102017.50
2023-02-03T11:32:33.648Z,102005.13
2023-02-03T11:35:27.958Z,102013.59
2023-02-03T11:37:57.187Z,102014.56
2023-02-03T11:40:29.370Z,102015.78
2023-02-03T11:42:56.131Z,102008.34
2023-02-03T11:45:41.714Z,102020.88
2023-02-03T11:48:13.319Z,102012.97
2023-02-03T11:50:52.130Z,102009.69
2023-02-03T11:53:30.147Z,102011.81
2023-02-03T11:56:28.953Z,102003.94
2023-02-03T11:59:31.546Z,101989.31
2023-02-03T12:02:23.351Z,101995.56
2023-02-03T12:05:07.264Z,102005.97
2023-02-03T12:07:46.901Z,102002.09
2023-02-03T12:10:31.503Z,102000.47
2023-02-03T12:13:26.673Z,101989.06
2023-02-03T12:16:25.991Z,101987.06
2023-02-03T12:19:20.394Z,101976.88
2023-02-03T12:22:08.631Z,101961.81
2023-02-03T12:25:08.990Z,101952.50
2023-02-03T12:28:20.671Z,101946.91
2023-02-03T12:31:21.240Z,101949.47
2023-02-03T12:36:42.929Z,101913.31
2023-02-03T12:39:47.077Z,101895.97
2023-02-03T12:42:50.444Z,101896.59
2023-02-03T12:45:38.158Z,101893.13
2023-02-03T12:48:19.285Z,101885.22
2023-02-03T12:51:02.481Z,101883.44
2023-02-03T12:53:34.010Z,101865.53
2023-02-03T12:56:08.703Z,101862.94
2023-02-03T12:58:50.533Z,101856.84
2023-02-03T13:02:03.321Z,101872.34
2023-02-03T13:05:00.943Z,101867.59
2023-02-03T13:08:03.858Z,101857.06
2023-02-03T13:10:50.033Z,101854.13
2023-02-03T13:13:41.777Z,101852.97
2023-02-03T13:16:37.258Z,101836.66
2023-02-03T13:19:17.581Z,101823.50
2023-02-03T13:21:53.405Z,101821.25
2023-02-03T13:24:30.217Z,101826.03
2023-02-03T13:27:17.630Z,101823.63
2023-02-03T13:30:04.946Z,101823.34
2023-02-03T13:32:56.180Z,101820.16
2023-02-03T13:35:34.365Z,101802.78
2023-02-03T13:38:16.266Z,101771.03
2023-02-03T13:41:17.658Z,101773.38
2023-02-03T13:43:50.487Z,101769.41
2023-02-03T13:46:32.300Z,101776.06
2023-02-03T13:49:10.708Z,101767.94
2023-02-03T13:51:46.974Z,101765.63
2023-02-03T13:54:26.098Z,101763.75
2023-02-03T13:57:20.431Z,101751.78
2023-02-03T13:59:47.233Z,101758.31
2023-02-03T14:02:19.839Z,101764.72
2023-02-03T14:04:46.498Z,101766.63
2023-02-03T14:07:39.003Z,101767.59
2023-02-03T14:10:14.790Z,101771.66
2023-02-03T14:12:53.683Z,101764.03
2023-02-03T14:15:52.282Z,101769.50
2023-02-03T14:18:54.944Z,101767.44
2023-02-03T14:21:24.641Z,101763.81
2023-02-03T14:24:02.457Z,101760.78
2023-02-03T14:26:34.118Z,101765.69
2023-02-03T14:29:02.096Z,101763.59
2023-02-03T14:31:28.847Z,101769.31
2023-02-03T14:34:17.595Z,101771.72
2023-02-03T14:36:50.719Z,101775.56
2023-02-03T14:39:24.570Z,101781.31
2023-02-03T14:42:16.214Z,101770.75
2023-02-03T14:45:20.628Z,101766.94
2023-02-03T14:47:52.658Z,101770.34
2023-02-03T14:50:22.388Z,101765.16
2023-02-03T14:52:58.909Z,101760.13
2023-02-03T14:56:10.150Z,101759.31
2023-02-03T14:59:04.911Z,101758.41
2023-02-03T15:01:51.628Z,101762.00
2023-02-03T15:04:28.709Z,101757.50
2023-02-03T15:07:04.706Z,101750.56
2023-02-03T15:09:47.451Z,101758.75
2023-02-03T15:12:24.335Z,101752.75
2023-02-03T15:14:51.011Z,101745.44
2023-02-03T15:17:27.498Z,101742.78
2023-02-03T15:19:54.627Z,101752.88
2023-02-03T15:22:28.767Z,101743.63
2023-02-03T15:25:03.771Z,101745.44
2023-02-03T15:27:36.283Z,101752.28
2023-02-03T15:30:40.180Z,101753.94
2023-02-03T15:33:39.776Z,101749.97
2023-02-03T15:36:15.314Z,101736.16
2023-02-03T15:38:50.557Z,101722.84
2023-02-03T15:41:25.436Z,101715.53
2023-02-03T15:44:01.285Z,101719.53
2023-02-03T15:46:42.097Z,101714.47
2023-02-03T15:49:18.187Z,101708.69
2023-02-03T15:52:03.113Z,101692.75
2023-02-03T15:55:20.882Z,101691.53
2023-02-03T15:57:52.850Z,101686.66
2023-02-03T16:00:41.376Z,101677.25
2023-02-03T16:03:40.308Z,101677.69
2023-02-03T16:06:31.367Z,101667.75
2023-02-03T16:08:58.878Z,101664.44
2023-02-03T16:11:30.096Z,101665.53
2023-02-03T16:13:58.002Z,101662.81
2023-02-03T16:17:03.886Z,101666.88
2023-02-03T16:19:36.714Z,101659.84
2023-02-03T16:22:23.117Z,101679.72
2023-02-03T16:24:49.759Z,101686.41
2023-02-03T16:27:25.561Z,101675.91
2023-02-03T16:29:56.243Z,101693.78
2023-02-03T16:32:23.208Z,101707.50
2023-02-03T16:34:50.747Z,101706.94
2023-02-03T16:37:42.553Z,101711.66
2023-02-03T16:40:12.608Z,101692.88
2023-02-03T16:42:45.430Z,101687.31
2023-02-03T16:45:19.226Z,101680.72
2023-02-03T16:47:47.221Z,101672.25
2023-02-03T16:50:32.816Z,101685.16
2023-02-03T16:53:04.667Z,101698.03
2023-02-03T16:55:34.428Z,101693.59
2023-02-03T16:58:04.572Z,101704.97
2023-02-03T17:00:46.984Z,101702.34
2023-02-03T17:03:28.236Z,101686.72
2023-02-03T17:05:56.242Z,101694.78
2023-02-03T17:08:25.269Z,101698.66
2023-02-03T17:10:54.970Z,101683.00
2023-02-03T17:13:23.183Z,101680.81
2023-02-03T17:15:52.441Z,101680.44
2023-02-03T17:18:24.889Z,101670.03
2023-02-03T17:20:53.632Z,101664.38
2023-02-03T17:23:27.350Z,101663.16
2023-02-03T17:26:04.706Z,101660.25
2023-02-03T17:28:31.519Z,101656.09
2023-02-03T17:31:11.285Z,101652.06
2023-02-03T17:33:40.952Z,101656.06
2023-02-03T17:36:19.199Z,101661.56
2023-02-03T17:55:14.771Z,101601.72
2023-02-03T17:57:45.821Z,101612.25
2023-02-03T18:00:13.135Z,101623.75
2023-02-03T18:02:44.084Z,101610.88
2023-02-03T18:05:13.729Z,101611.69
2023-02-03T18:07:40.529Z,101612.53
2023-02-03T18:10:30.627Z,101612.38
2023-02-03T18:12:57.356Z,101615.53
2023-02-03T18:15:23.984Z,101615.84
2023-02-03T18:17:54.674Z,101614.03
2023-02-03T18:20:21.488Z,101615.53
2023-02-03T18:22:48.328Z,101599.78
2023-02-03T18:25:21.234Z,101604.38
2023-02-03T18:27:55.325Z,101606.84
2023-02-03T18:30:22.006Z,101605.75
2023-02-03T18:32:52.107Z,101600.34
2023-02-03T18:35:21.764Z,101597.88
2023-02-03T18:37:53.941Z,101595.81
2023-02-03T18:40:23.653Z,101584.88
2023-02-03T18:42:51.953Z,101588.34
2023-02-03T18:45:18.677Z,101593.31
2023-02-03T18:47:45.639Z,101603.00
2023-02-03T18:50:12.276Z,101602.84
2023-02-03T18:52:38.849Z,101602.34
2023-02-03T18:55:19.877Z,101598.16
2023-02-03T18:57:46.496Z,101593.47
2023-02-03T19:00:32.245Z,101591.66
2023-02-03T19:03:02.774Z,101586.13
2023-02-03T19:05:29.517Z,101579.50
2023-02-03T19:08:00.747Z,101569.25
2023-02-03T19:10:28.143Z,101585.16
2023-02-03T19:12:55.028Z,101582.94
2023-02-03T19:15:23.925Z,101582.53
2023-02-03T19:17:50.602Z,101590.53
2023-02-03T19:20:20.419Z,101577.56
2023-02-03T19:22:50.309Z,101562.22
2023-02-03T19:25:29.542Z,101557.25
2023-02-03T19:27:57.492Z,101556.28
2023-02-03T19:30:27.577Z,101545.78
2023-02-03T19:32:56.965Z,101540.94
2023-02-03T19:35:25.028Z,101547.84
2023-02-03T19:40:38.446Z,101553.50
2023-02-03T19:43:05.187Z,101554.34
2023-02-03T19:45:33.482Z,101541.34
2023-02-03T19:48:00.408Z,101528.38
2023-02-03T19:53:18.991Z,101520.19
2023-02-03T19:55:46.590Z,101519.53
2023-02-03T19:58:22.532Z,101520.09
2023-02-03T20:00:56.989Z,101512.34
2023-02-03T20:03:30.160Z,101520.09
2023-02-03T20:05:57.581Z,101516.34
2023-02-03T20:08:24.947Z,101508.75
2023-02-03T20:10:54.783Z,101510.25
2023-02-03T20:13:21.518Z,101508.31
2023-02-03T20:15:48.243Z,101505.53
2023-02-03T20:18:15.111Z,101499.56
2023-02-03T20:20:42.016Z,101492.19
2023-02-03T20:23:08.708Z,101491.78
2023-02-03T20:25:42.820Z,101481.38
2023-02-03T20:28:13.235Z,101469.91
2023-02-03T20:30:46.522Z,101448.16
2023-02-03T20:33:19.751Z,101441.00
2023-02-03T20:35:54.868Z,101446.81
2023-02-03T20:38:21.661Z,101456.56
2023-02-03T20:41:00.177Z,101440.41
2023-02-03T20:43:42.283Z,101432.53
2023-02-03T20:46:21.999Z,101431.66
2023-02-03T20:48:52.598Z,101431.53
2023-02-03T20:51:19.852Z,101418.97
2023-02-03T20:53:51.869Z,101410.56
2023-02-03T20:56:21.097Z,101403.72
2023-02-03T20:58:47.942Z,101400.75
2023-02-03T21:01:24.506Z,101407.25
2023-02-03T21:03:53.417Z,101404.75
2023-02-03T21:06:20.814Z,101397.22
2023-02-03T21:08:52.950Z,101390.63
2023-02-03T21:11:32.810Z,101391.66
2023-02-03T21:14:02.469Z,101388.75
2023-02-03T21:16:38.289Z,101392.81
2023-02-03T21:19:05.415Z,101384.22
2023-02-03T21:21:39.877Z,101381.94
2023-02-03T21:24:38.741Z,101388.22
2023-02-03T21:27:34.166Z,101393.63
2023-02-03T21:30:03.810Z,101393.38
2023-02-03T21:32:42.656Z,101396.91
2023-02-03T21:35:42.754Z,101387.94
2023-02-03T21:38:46.096Z,101396.63
2023-02-03T21:41:20.806Z,101401.97
2023-02-03T21:43:50.923Z,101399.28
2023-02-03T21:46:26.706Z,101406.00
2023-02-03T21:49:02.551Z,101406.41
2023-02-03T21:51:40.631Z,101417.09
2023-02-03T21:54:28.036Z,101404.56
2023-02-03T21:56:54.797Z,101407.94
2023-02-03T21:59:24.141Z,101402.56
2023-02-03T22:01:51.754Z,101396.81
2023-02-03T22:04:20.158Z,101416.59
2023-02-03T22:06:53.264Z,101415.00
2023-02-03T22:09:27.439Z,101418.47
2023-02-03T22:11:55.989Z,101423.72
2023-02-03T22:14:23.135Z,101446.66
2023-02-03T22:17:00.936Z,101447.31
2023-02-03T22:19:33.435Z,101458.22
2023-02-03T22:22:10.534Z,101455.28
2023-02-03T22:24:57.648Z,101464.75
2023-02-03T22:27:24.260Z,101455.81
2023-02-03T22:29:50.981Z,101459.19
2023-02-03T22:32:17.581Z,101450.72
2023-02-03T22:34:44.187Z,101453.31
2023-02-03T22:37:10.786Z,101466.34
2023-02-03T22:39:37.343Z,101471.41
2023-02-03T22:42:04.265Z,101462.03
2023-02-03T22:44:33.476Z,101471.72
2023-02-03T22:47:02.359Z,101483.81
2023-02-03T22:49:31.931Z,101491.91
2023-02-03T22:51:58.507Z,101482.53
2023-02-03T22:54:31.748Z,101492.50
2023-02-03T22:57:00.843Z,101487.81
2023-02-03T22:59:38.893Z,101480.94
2023-02-03T23:02:07.520Z,101475.00
2023-02-03T23:04:34.310Z,101468.78
2023-02-03T23:07:03.220Z,101469.44
2023-02-03T23:09:36.552Z,101459.94
2023-02-03T23:12:11.209Z,101473.63
2023-02-03T23:14:41.417Z,101478.75
2023-02-03T23:17:08.043Z,101477.66
2023-02-03T23:19:41.491Z,101453.47
2023-02-03T23:22:18.604Z,101448.78
2023-02-03T23:24:46.239Z,101450.03
2023-02-03T23:27:17.098Z,101449.50
2023-02-03T23:29:43.725Z,101448.09
2023-02-03T23:32:10.349Z,101446.75
2023-02-03T23:34:49.018Z,101440.53
2023-02-03T23:37:21.130Z,101438.47
2023-02-03T23:39:50.028Z,101450.75
2023-02-03T23:42:16.810Z,101444.13
2023-02-03T23:44:46.129Z,101434.88
2023-02-03T23:47:15.351Z,101432.81
2023-02-03T23:49:41.992Z,101427.13
2023-02-03T23:52:08.642Z,101431.03
2023-02-03T23:54:37.874Z,101423.16
2023-02-03T23:59:47.664Z,101433.91
